createdAt,value
2024-05-09T00:00:44.991Z,95729.97
2024-05-09T00:03:13.057Z,95735.41
2024-05-09T00:05:44.361Z,95732.50
2024-05-09T00:08:12.452Z,95746.53
2024-05-09T00:10:41.052Z,95752.72
2024-05-09T00:13:10.113Z,95754.69
2024-05-09T00:15:38.155Z,95760.81
2024-05-09T00:18:07.774Z,95773.31
2024-05-09T00:20:39.486Z,95794.91
2024-05-09T00:23:09.700Z,95786.94
2024-05-09T00:25:37.724Z,95794.03
2024-05-09T00:28:05.441Z,95803.66
2024-05-09T00:30:35.939Z,95810.53
2024-05-09T00:33:09.360Z,95811.88
2024-05-09T00:35:38.511Z,95809.38
2024-05-09T00:38:06.616Z,95808.88
2024-05-09T00:40:42.011Z,95807.31
2024-05-09T00:43:15.047Z,95813.78
2024-05-09T00:45:43.684Z,95813.41
2024-05-09T00:48:17.576Z,95812.06
2024-05-09T00:50:47.668Z,95819.00
2024-05-09T00:53:17.703Z,95833.78
2024-05-09T00:55:47.088Z,95839.44
2024-05-09T00:58:16.343Z,95835.94
2024-05-09T01:00:44.419Z,95842.47
2024-05-09T01:03:13.658Z,95838.78
2024-05-09T01:05:43.089Z,95844.63
2024-05-09T01:08:11.550Z,95847.47
2024-05-09T01:10:40.777Z,95842.56
2024-05-09T01:13:10.480Z,95845.84
2024-05-09T01:15:37.949Z,95844.22
2024-05-09T01:18:11.512Z,95851.16
2024-05-09T01:20:43.142Z,95844.78
2024-05-09T01:23:14.882Z,95854.31
2024-05-09T01:25:44.141Z,95853.44
2024-05-09T01:28:11.981Z,95862.69
2024-05-09T01:30:39.553Z,95865.72
2024-05-09T01:33:09.086Z,95892.19
2024-05-09T01:35:39.419Z,95899.13
2024-05-09T01:38:07.326Z,95888.59
2024-05-09T01:40:38.659Z,95900.88
2024-05-09T01:43:09.088Z,95900.09
2024-05-09T01:45:37.718Z,95914.84
2024-05-09T01:48:05.807Z,95903.88
2024-05-09T01:50:38.473Z,95899.44
2024-05-09T01:53:13.362Z,95907.72
2024-05-09T01:55:41.501Z,95916.59
2024-05-09T01:58:10.004Z,95928.53
2024-05-09T02:00:41.272Z,95942.53
2024-05-09T02:03:13.518Z,95936.72
2024-05-09T02:05:44.499Z,95926.34
2024-05-09T02:08:19.389Z,95919.50
2024-05-09T02:10:48.200Z,95921.13
2024-05-09T02:13:16.971Z,95925.38
2024-05-09T02:15:44.727Z,95931.88
2024-05-09T02:18:12.985Z,95931.53
2024-05-09T02:20:42.082Z,95922.75
2024-05-09T02:23:10.297Z,95946.09
2024-05-09T02:25:37.954Z,95947.81
2024-05-09T02:28:05.770Z,95942.63
2024-05-09T02:30:39.636Z,95957.78
2024-05-09T02:33:13.951Z,95955.44
2024-05-09T02:35:43.466Z,95956.44
2024-05-09T02:38:11.889Z,95985.22
2024-05-09T02:40:40.327Z,95980.66
2024-05-09T02:43:10.120Z,95966.31
2024-05-09T02:45:39.216Z,95983.50
2024-05-09T02:48:07.339Z,95972.94
2024-05-09T02:50:39.059Z,95971.72
2024-05-09T02:53:08.656Z,95967.59
2024-05-09T02:55:37.227Z,95975.91
2024-05-09T02:58:04.720Z,95973.94
2024-05-09T03:00:39.117Z,95989.69
2024-05-09T03:03:10.802Z,95999.94
2024-05-09T03:05:40.803Z,96006.78
2024-05-09T03:08:08.537Z,96011.72
2024-05-09T03:10:38.577Z,96014.69
2024-05-09T03:13:13.190Z,95999.00
2024-05-09T03:15:42.308Z,96001.19
2024-05-09T03:18:10.132Z,95998.00
2024-05-09T03:20:38.667Z,96010.28
2024-05-09T03:23:10.035Z,96014.00
2024-05-09T03:25:38.496Z,96015.16
2024-05-09T03:28:06.378Z,96016.97
2024-05-09T03:30:41.144Z,96030.34
2024-05-09T03:33:11.625Z,96043.06
2024-05-09T03:35:39.466Z,96060.31
2024-05-09T03:38:06.929Z,96054.91
2024-05-09T03:40:34.387Z,96064.31
2024-05-09T03:43:01.812Z,96059.75
2024-05-09T03:45:29.326Z,96067.13
2024-05-09T03:47:57.070Z,96073.03
2024-05-09T03:50:30.246Z,96072.97
2024-05-09T03:53:02.143Z,96075.50
2024-05-09T03:55:29.919Z,96076.00
2024-05-09T03:57:57.510Z,96089.22
2024-05-09T04:00:31.655Z,96095.47
2024-05-09T04:03:06.660Z,96103.19
2024-05-09T04:05:37.073Z,96109.13
2024-05-09T04:08:05.806Z,96111.50
2024-05-09T04:10:35.654Z,96113.78
2024-05-09T04:13:04.052Z,96112.91
2024-05-09T04:15:32.237Z,96110.22
2024-05-09T04:18:00.375Z,96125.63
2024-05-09T04:20:36.352Z,96129.78
2024-05-09T04:23:08.223Z,96131.72
2024-05-09T04:25:37.833Z,96136.47
2024-05-09T04:28:08.935Z,96133.34
2024-05-09T04:30:39.606Z,96143.31
2024-05-09T04:33:12.066Z,96126.72
2024-05-09T04:35:45.392Z,96128.59
2024-05-09T04:38:14.438Z,96138.13
2024-05-09T04:40:42.789Z,96143.91
2024-05-09T04:43:17.631Z,96144.59
2024-05-09T04:45:45.371Z,96142.91
2024-05-09T04:52:02.789Z,96137.00
2024-05-09T04:54:36.421Z,96125.06
2024-05-09T04:57:07.328Z,96135.72
2024-05-09T04:59:34.897Z,96141.41
2024-05-09T05:02:02.460Z,96139.13
2024-05-09T05:04:32.955Z,96132.94
2024-05-09T05:07:02.758Z,96145.94
2024-05-09T05:09:30.540Z,96146.56
2024-05-09T05:12:02.674Z,96137.06
2024-05-09T05:14:30.330Z,96154.59
2024-05-09T05:16:57.807Z,96156.03
2024-05-09T05:19:25.556Z,96151.56
2024-05-09T05:21:53.212Z,96154.38
2024-05-09T05:24:20.899Z,96158.66
2024-05-09T05:26:48.362Z,96151.78
2024-05-09T05:29:18.478Z,96156.06
2024-05-09T05:31:47.175Z,96172.56
2024-05-09T05:34:14.702Z,96168.06
2024-05-09T05:36:42.716Z,96175.84
2024-05-09T05:39:10.876Z,96170.41
2024-05-09T05:41:38.313Z,96174.25
2024-05-09T05:44:06.003Z,96180.09
2024-05-09T05:46:33.512Z,96183.47
2024-05-09T05:49:01.216Z,96182.78
2024-05-09T05:51:28.779Z,96182.81
2024-05-09T05:53:56.165Z,96188.13
2024-05-09T05:56:23.578Z,96188.88
2024-05-09T05:58:51.878Z,96189.44
2024-05-09T06:01:19.428Z,96186.66
2024-05-09T06:03:47.211Z,96191.59
2024-05-09T06:06:14.825Z,96192.78
2024-05-09T06:08:42.486Z,96198.09
2024-05-09T06:11:10.042Z,96204.66
2024-05-09T06:13:37.620Z,96200.16
2024-05-09T06:16:05.368Z,96200.22
2024-05-09T06:18:32.999Z,96197.19
2024-05-09T06:21:00.669Z,96213.75
2024-05-09T06:23:28.330Z,96204.84
2024-05-09T06:25:56.050Z,96217.00
2024-05-09T06:28:23.521Z,96223.94
2024-05-09T06:30:51.030Z,96226.16
2024-05-09T06:33:18.734Z,96228.84
2024-05-09T06:35:46.385Z,96222.22
2024-05-09T06:38:14.118Z,96226.38
2024-05-09T06:40:43.996Z,96239.94
2024-05-09T06:43:12.867Z,96237.84
2024-05-09T06:45:40.485Z,96237.31
2024-05-09T06:48:08.914Z,96237.78
2024-05-09T06:50:38.496Z,96241.38
2024-05-09T06:53:07.731Z,96243.94
2024-05-09T06:55:35.327Z,96258.75
2024-05-09T06:58:02.854Z,96260.59
2024-05-09T07:00:38.011Z,96256.75
2024-05-09T07:03:13.081Z,96253.69
2024-05-09T07:05:42.840Z,96254.31
2024-05-09T07:08:10.983Z,96257.19
2024-05-09T07:10:38.721Z,96252.63
2024-05-09T07:13:13.291Z,96271.47
2024-05-09T07:15:41.393Z,96267.84
2024-05-09T07:18:17.703Z,96265.28
2024-05-09T07:20:47.006Z,96266.13
2024-05-09T07:23:15.150Z,96263.00
2024-05-09T07:25:42.754Z,96275.53
2024-05-09T07:28:10.949Z,96274.00
2024-05-09T07:30:38.411Z,96267.13
2024-05-09T07:33:06.284Z,96274.97
2024-05-09T07:35:34.226Z,96275.72
2024-05-09T07:38:01.966Z,96275.50
2024-05-09T07:40:35.758Z,96281.34
2024-05-09T07:43:04.997Z,96282.66
2024-05-09T07:52:23.249Z,96282.59
2024-05-09T07:53:39.478Z,96280.31
2024-05-09T07:56:11.965Z,96284.69
2024-05-09T07:58:41.163Z,96286.91
2024-05-09T08:01:08.823Z,96290.78
2024-05-09T08:03:39.783Z,96287.03
2024-05-09T08:06:07.424Z,96292.81
2024-05-09T08:08:34.822Z,96291.13
2024-05-09T08:11:02.853Z,96291.66
2024-05-09T08:13:30.418Z,96297.31
2024-05-09T08:15:57.995Z,96310.69
2024-05-09T08:18:26.596Z,96305.84
2024-05-09T08:20:54.123Z,96310.72
2024-05-09T08:23:21.539Z,96322.84
2024-05-09T08:25:57.963Z,96318.13
2024-05-09T08:28:25.439Z,96323.50
2024-05-09T08:30:53.046Z,96323.59
2024-05-09T08:33:20.723Z,96324.22
2024-05-09T08:35:48.489Z,96330.69
2024-05-09T08:38:16.285Z,96332.59
2024-05-09T08:40:44.176Z,96341.50
2024-05-09T08:43:12.867Z,96344.44
2024-05-09T08:45:44.660Z,96330.97
2024-05-09T08:48:16.899Z,96339.81
2024-05-09T08:50:45.656Z,96347.00
2024-05-09T08:53:15.479Z,96347.94
2024-05-09T08:55:44.364Z,96343.75
2024-05-09T08:58:14.330Z,96353.81
2024-05-09T09:00:43.728Z,96347.38
2024-05-09T09:03:13.181Z,96348.41
2024-05-09T09:05:42.658Z,96361.00
2024-05-09T09:08:10.146Z,96353.13
2024-05-09T09:10:40.080Z,96360.94
2024-05-09T09:13:10.059Z,96364.44
2024-05-09T09:15:47.685Z,96365.44
2024-05-09T09:18:18.570Z,96368.59
2024-05-09T09:20:47.179Z,96373.72
2024-05-09T09:23:14.743Z,96376.25
2024-05-09T09:25:42.471Z,96366.13
2024-05-09T09:28:10.113Z,96360.28
2024-05-09T09:30:41.328Z,96366.00
2024-05-09T09:33:10.015Z,96381.03
2024-05-09T09:35:39.593Z,96379.47
2024-05-09T09:38:08.083Z,96375.91
2024-05-09T09:40:40.655Z,96369.75
2024-05-09T09:43:21.571Z,96377.72
2024-05-09T09:45:51.909Z,96368.94
2024-05-09T09:48:23.453Z,96378.41
2024-05-09T09:50:55.168Z,96369.41
2024-05-09T09:53:23.291Z,96373.28
2024-05-09T09:55:52.494Z,96374.94
2024-05-09T09:58:20.081Z,96379.66
2024-05-09T10:00:47.806Z,96385.47
2024-05-09T10:03:15.507Z,96380.31
2024-05-09T10:05:45.402Z,96383.03
2024-05-09T10:08:16.259Z,96375.72
2024-05-09T10:10:46.738Z,96380.38
2024-05-09T10:13:14.524Z,96379.16
2024-05-09T10:15:51.287Z,96392.06
2024-05-09T10:18:28.099Z,96392.66
2024-05-09T10:20:58.050Z,96395.50
2024-05-09T10:23:29.365Z,96406.22
2024-05-09T10:25:57.912Z,96401.22
2024-05-09T10:28:28.633Z,96407.31
2024-05-09T10:31:08.568Z,96407.25
2024-05-09T10:33:50.658Z,96419.34
2024-05-09T10:36:20.081Z,96422.31
2024-05-09T10:38:49.058Z,96425.16
2024-05-09T10:41:20.967Z,96423.88
2024-05-09T10:43:48.855Z,96436.97
2024-05-09T10:46:16.722Z,96415.69
2024-05-09T10:48:44.793Z,96425.94
2024-05-09T10:51:13.701Z,96425.34
2024-05-09T10:53:44.570Z,96430.09
2024-05-09T10:56:13.806Z,96429.53
2024-05-09T10:58:41.325Z,96440.28
2024-05-09T11:01:10.629Z,96441.63
2024-05-09T11:03:39.107Z,96438.06
2024-05-09T11:06:07.348Z,96442.25
2024-05-09T11:08:35.788Z,96450.63
2024-05-09T11:11:08.031Z,96443.75
2024-05-09T11:13:39.625Z,96445.19
2024-05-09T11:16:16.804Z,96441.25
2024-05-09T11:18:44.731Z,96439.00
2024-05-09T11:21:13.749Z,96446.06
2024-05-09T11:23:41.634Z,96453.59
2024-05-09T11:26:10.316Z,96452.84
2024-05-09T11:28:39.881Z,96455.34
2024-05-09T11:31:08.752Z,96453.50
2024-05-09T11:33:38.420Z,96465.59
2024-05-09T11:36:06.741Z,96459.78
2024-05-09T11:38:34.300Z,96466.78
2024-05-09T11:41:02.489Z,96462.28
2024-05-09T11:43:30.037Z,96454.13
2024-05-09T11:45:57.767Z,96471.91
2024-05-09T11:48:25.829Z,96482.25
2024-05-09T11:50:54.448Z,96483.34
2024-05-09T11:53:21.955Z,96488.84
2024-05-09T11:55:49.451Z,96491.78
2024-05-09T11:58:18.563Z,96496.53
2024-05-09T12:00:47.316Z,96495.78
2024-05-09T12:03:15.095Z,96512.38
2024-05-09T12:05:42.805Z,96514.53
2024-05-09T12:08:10.376Z,96515.44
2024-05-09T12:10:38.034Z,96523.88
2024-05-09T12:13:06.944Z,96513.94
2024-05-09T12:15:38.986Z,96526.19
2024-05-09T12:18:07.830Z,96526.13
2024-05-09T12:20:38.840Z,96530.53
2024-05-09T12:23:09.473Z,96531.81
2024-05-09T12:25:39.499Z,96531.91
2024-05-09T12:28:07.936Z,96537.00
2024-05-09T12:30:39.901Z,96543.66
2024-05-09T12:33:13.042Z,96547.03
2024-05-09T12:35:44.006Z,96541.22
2024-05-09T12:38:14.335Z,96545.69
2024-05-09T12:40:42.651Z,96547.91
2024-05-09T12:43:11.413Z,96553.09
2024-05-09T12:45:39.833Z,96551.03
2024-05-09T12:48:12.262Z,96561.84
2024-05-09T12:50:41.399Z,96556.41
2024-05-09T12:53:09.130Z,96550.44
2024-05-09T12:55:44.341Z,96563.69
2024-05-09T12:58:22.759Z,96563.53
2024-05-09T13:00:51.848Z,96562.22
2024-05-09T13:03:19.552Z,96568.09
2024-05-09T13:05:47.247Z,96562.97
2024-05-09T13:08:14.907Z,96565.78
2024-05-09T13:10:42.625Z,96561.13
2024-05-09T13:13:11.067Z,96576.84
2024-05-09T13:15:39.297Z,96570.56
2024-05-09T13:18:07.088Z,96581.72
2024-05-09T13:20:36.377Z,96585.41
2024-05-09T13:23:05.768Z,96588.09
2024-05-09T13:25:37.155Z,96587.09
2024-05-09T13:28:06.108Z,96586.41
2024-05-09T13:30:39.782Z,96579.97
2024-05-09T13:33:10.635Z,96587.09
2024-05-09T13:35:40.169Z,96597.97
2024-05-09T13:38:08.170Z,96601.88
2024-05-09T13:40:36.614Z,96611.44
2024-05-09T13:43:05.195Z,96601.16
2024-05-09T13:45:33.606Z,96620.06
2024-05-09T13:48:02.632Z,96609.97
2024-05-09T13:50:34.788Z,96627.72
2024-05-09T13:53:06.687Z,96635.50
2024-05-09T13:55:35.685Z,96640.66
2024-05-09T13:58:03.666Z,96641.19
2024-05-09T14:00:42.115Z,96647.31
2024-05-09T14:03:15.302Z,96647.34
2024-05-09T14:05:43.819Z,96639.16
2024-05-09T14:08:11.937Z,96641.56
2024-05-09T14:10:44.674Z,96642.28
2024-05-09T14:13:13.215Z,96654.41
2024-05-09T14:15:41.194Z,96649.72
2024-05-09T14:18:12.424Z,96655.53
2024-05-09T14:20:41.839Z,96660.31
2024-05-09T14:23:09.643Z,96668.72
2024-05-09T14:25:42.286Z,96670.59
2024-05-09T14:28:11.955Z,96678.16
2024-05-09T14:30:40.161Z,96682.69
2024-05-09T14:33:08.930Z,96677.94
2024-05-09T14:35:40.209Z,96686.47
2024-05-09T14:38:08.865Z,96685.03
2024-05-09T14:40:41.891Z,96685.41
2024-05-09T14:43:11.881Z,96687.41
2024-05-09T14:45:39.761Z,96692.22
2024-05-09T14:48:08.042Z,96681.91
2024-05-09T14:50:38.729Z,96677.31
2024-05-09T14:53:09.144Z,96685.03
2024-05-09T14:55:38.037Z,96688.97
2024-05-09T14:58:10.475Z,96695.97
2024-05-09T15:00:42.267Z,96696.22
2024-05-09T15:03:12.490Z,96698.28
2024-05-09T15:05:40.693Z,96693.69
2024-05-09T15:08:08.957Z,96703.34
2024-05-09T15:10:37.542Z,96703.44
2024-05-09T15:13:08.057Z,96706.44
2024-05-09T15:15:37.387Z,96707.59
2024-05-09T15:18:06.390Z,96708.28
2024-05-09T15:20:36.506Z,96717.38
2024-05-09T15:23:06.473Z,96715.06
2024-05-09T15:25:35.822Z,96710.56
2024-05-09T15:28:04.167Z,96712.16
2024-05-09T15:30:33.632Z,96716.06
2024-05-09T15:33:06.897Z,96726.59
2024-05-09T15:35:35.437Z,96729.88
2024-05-09T15:38:03.998Z,96727.94
2024-05-09T15:40:38.807Z,96728.66
2024-05-09T15:43:09.934Z,96722.94
2024-05-09T15:45:39.424Z,96727.66
2024-05-09T15:48:08.625Z,96732.63
2024-05-09T15:50:40.081Z,96733.47
2024-05-09T15:53:10.598Z,96730.38
2024-05-09T15:55:38.607Z,96727.34
2024-05-09T15:58:07.141Z,96726.97
2024-05-09T16:00:39.342Z,96721.59
2024-05-09T16:03:10.376Z,96734.72
2024-05-09T16:05:38.423Z,96733.19
2024-05-09T16:08:06.521Z,96727.81
2024-05-09T16:10:35.069Z,96740.94
2024-05-09T16:13:03.974Z,96743.69
2024-05-09T16:15:32.149Z,96734.03
2024-05-09T16:18:00.496Z,96734.84
2024-05-09T16:20:37.417Z,96749.88
2024-05-09T16:23:08.932Z,96753.72
2024-05-09T16:25:36.858Z,96755.66
2024-05-09T16:28:08.922Z,96765.66
2024-05-09T16:30:41.518Z,96758.75
2024-05-09T16:33:09.703Z,96760.28
2024-05-09T16:35:37.790Z,96763.38
2024-05-09T16:38:06.354Z,96770.28
2024-05-09T16:40:38.825Z,96777.25
2024-05-09T16:43:13.295Z,96774.16
2024-05-09T16:45:44.094Z,96784.16
2024-05-09T16:48:12.779Z,96776.47
2024-05-09T16:50:40.257Z,96784.56
2024-05-09T16:53:07.951Z,96786.47
2024-05-09T16:55:36.148Z,96778.38
2024-05-09T16:58:04.607Z,96781.09
2024-05-09T17:00:40.220Z,96779.53
2024-05-09T17:03:11.793Z,96783.38
2024-05-09T17:05:40.533Z,96791.88
2024-05-09T17:08:08.653Z,96785.69
2024-05-09T17:10:36.950Z,96788.03
2024-05-09T17:13:06.774Z,96785.31
2024-05-09T17:15:36.892Z,96787.25
2024-05-09T17:18:05.627Z,96790.72
2024-05-09T17:20:36.229Z,96788.00
2024-05-09T17:23:06.409Z,96792.63
2024-05-09T17:25:34.730Z,96796.09
2024-05-09T17:28:07.805Z,96790.31
2024-05-09T17:30:38.260Z,96791.09
2024-05-09T17:33:09.132Z,96792.63
2024-05-09T17:35:37.645Z,96801.47
2024-05-09T17:38:05.670Z,96803.00
2024-05-09T17:40:36.072Z,96812.63
2024-05-09T17:43:07.039Z,96811.06
2024-05-09T17:45:39.440Z,96818.75
2024-05-09T17:48:08.695Z,96819.09
2024-05-09T17:50:37.719Z,96819.91
2024-05-09T17:53:06.538Z,96826.84
2024-05-09T17:55:34.776Z,96830.69
2024-05-09T17:58:02.969Z,96828.78
2024-05-09T18:00:37.810Z,96834.97
2024-05-09T18:03:09.145Z,96841.88
2024-05-09T18:05:37.745Z,96841.88
2024-05-09T18:08:06.273Z,96836.13
2024-05-09T18:10:37.819Z,96849.97
2024-05-09T18:13:08.801Z,96841.13
2024-05-09T18:15:36.950Z,96837.25
2024-05-09T18:18:05.934Z,96838.34
2024-05-09T18:20:41.825Z,96837.94
2024-05-09T18:23:14.157Z,96834.44
2024-05-09T18:25:42.588Z,96836.75
2024-05-09T18:28:10.449Z,96843.28
2024-05-09T18:30:38.353Z,96849.84
2024-05-09T18:33:07.953Z,96846.38
2024-05-09T18:35:36.723Z,96843.22
2024-05-09T18:38:05.741Z,96830.88
2024-05-09T18:40:36.607Z,96838.97
2024-05-09T18:43:07.817Z,96848.53
2024-05-09T18:45:39.906Z,96838.09
2024-05-09T18:48:08.704Z,96841.94
2024-05-09T18:50:39.556Z,96836.84
2024-05-09T18:53:09.144Z,96846.06
2024-05-09T18:55:36.806Z,96838.75
2024-05-09T18:58:05.047Z,96836.81
2024-05-09T19:00:36.427Z,96834.88
2024-05-09T19:03:10.322Z,96830.19
2024-05-09T19:05:40.954Z,96837.16
2024-05-09T19:08:09.109Z,96833.34
2024-05-09T19:10:37.607Z,96841.47
2024-05-09T19:13:11.212Z,96832.34
2024-05-09T19:15:41.386Z,96831.94
2024-05-09T19:18:10.274Z,96829.19
2024-05-09T19:20:38.502Z,96828.06
2024-05-09T19:23:07.099Z,96829.56
2024-05-09T19:25:35.686Z,96826.50
2024-05-09T19:28:04.007Z,96831.09
2024-05-09T19:30:38.657Z,96829.97
2024-05-09T19:33:10.565Z,96833.03
2024-05-09T19:35:39.160Z,96836.13
2024-05-09T19:38:06.808Z,96844.19
2024-05-09T19:40:35.453Z,96835.72
2024-05-09T19:43:05.366Z,96840.72
2024-05-09T19:45:34.824Z,96837.97
2024-05-09T19:48:03.658Z,96837.19
2024-05-09T19:50:37.867Z,96834.88
2024-05-09T19:53:11.134Z,96838.25
2024-05-09T19:55:39.097Z,96838.59
2024-05-09T19:58:07.904Z,96838.16
2024-05-09T20:00:38.498Z,96837.03
2024-05-09T20:03:08.870Z,96842.41
2024-05-09T20:05:37.409Z,96843.59
2024-05-09T20:08:05.702Z,96835.91
2024-05-09T20:10:35.447Z,96838.22
2024-05-09T20:13:05.438Z,96842.84
2024-05-09T20:15:38.259Z,96840.97
2024-05-09T20:18:07.210Z,96844.00
2024-05-09T20:20:39.591Z,96845.13
2024-05-09T20:23:10.431Z,96847.41
2024-05-09T20:25:38.161Z,96850.91
2024-05-09T20:28:06.776Z,96844.75
2024-05-09T20:30:35.760Z,96850.47
2024-05-09T20:33:05.228Z,96846.22
2024-05-09T20:35:34.610Z,96844.63
2024-05-09T20:38:03.514Z,96845.00
2024-05-09T20:40:35.441Z,96851.84
2024-05-09T20:43:06.800Z,96842.94
2024-05-09T20:45:35.065Z,96855.97
2024-05-09T20:48:02.929Z,96846.66
2024-05-09T20:50:38.529Z,96845.13
2024-05-09T20:53:09.623Z,96846.28
2024-05-09T20:55:37.260Z,96843.44
2024-05-09T20:58:05.125Z,96849.41
2024-05-09T21:00:39.598Z,96852.44
2024-05-09T21:03:11.373Z,96853.50
2024-05-09T21:05:39.718Z,96858.03
2024-05-09T21:08:07.817Z,96855.56
2024-05-09T21:10:36.232Z,96859.28
2024-05-09T21:13:04.707Z,96855.25
2024-05-09T21:15:32.488Z,96865.22
2024-05-09T21:18:00.056Z,96862.81
2024-05-09T21:20:31.752Z,96862.47
2024-05-09T21:23:01.453Z,96872.84
2024-05-09T21:25:29.486Z,96873.75
2024-05-09T21:27:57.254Z,96860.03
2024-05-09T21:30:36.984Z,96867.06
2024-05-09T21:33:10.403Z,96867.53
2024-05-09T21:35:39.292Z,96874.81
2024-05-09T21:38:07.664Z,96880.63
2024-05-09T21:40:36.778Z,96886.38
2024-05-09T21:43:05.830Z,96887.78
2024-05-09T21:45:39.096Z,96887.03
2024-05-09T21:48:09.874Z,96887.03
2024-05-09T21:50:41.095Z,96888.56
2024-05-09T21:53:13.564Z,96891.28
2024-05-09T21:55:41.951Z,96883.78
2024-05-09T21:58:09.646Z,96890.69
2024-05-09T22:00:39.457Z,96895.38
2024-05-09T22:03:08.446Z,96893.16
2024-05-09T22:05:37.749Z,96898.88
2024-05-09T22:08:08.421Z,96900.03
2024-05-09T22:10:37.002Z,96895.03
2024-05-09T22:13:05.944Z,96902.78
2024-05-09T22:15:38.473Z,96899.72
2024-05-09T22:18:08.717Z,96900.53
2024-05-09T22:20:39.430Z,96896.06
2024-05-09T22:23:08.528Z,96899.50
2024-05-09T22:25:37.185Z,96895.22
2024-05-09T22:28:05.141Z,96899.72
2024-05-09T22:30:37.204Z,96908.75
2024-05-09T22:33:07.865Z,96896.59
2024-05-09T22:35:35.793Z,96883.44
2024-05-09T22:38:06.100Z,96894.75
2024-05-09T22:40:43.156Z,96899.41
2024-05-09T22:43:20.663Z,96900.03
2024-05-09T22:45:49.851Z,96882.03
2024-05-09T22:48:18.055Z,96892.28
2024-05-09T22:50:45.585Z,96895.22
2024-05-09T22:53:13.028Z,96898.44
2024-05-09T22:55:40.510Z,96888.22
2024-05-09T22:58:08.117Z,96891.66
2024-05-09T23:00:35.892Z,96891.38
2024-05-09T23:03:03.877Z,96893.00
2024-05-09T23:05:32.986Z,96896.84
2024-05-09T23:08:03.599Z,96894.50
2024-05-09T23:10:36.348Z,96899.78
2024-05-09T23:13:06.734Z,96894.06
2024-05-09T23:15:34.958Z,96895.75
2024-05-09T23:18:02.618Z,96905.03
2024-05-09T23:20:36.962Z,96892.88
2024-05-09T23:23:07.311Z,96907.63
2024-05-09T23:25:35.056Z,96888.00
2024-05-09T23:28:02.889Z,96907.25
2024-05-09T23:30:37.423Z,96908.09
2024-05-09T23:33:08.355Z,96902.47
2024-05-09T23:35:36.346Z,96902.19
2024-05-09T23:38:03.918Z,96908.00
2024-05-09T23:40:38.468Z,96910.78
2024-05-09T23:43:09.033Z,96921.56
2024-05-09T23:45:37.038Z,96921.50
2024-05-09T23:48:05.016Z,96911.56
2024-05-09T23:50:36.200Z,96915.81
2024-05-09T23:53:07.634Z,96917.81
2024-05-09T23:55:36.667Z,96930.56
2024-05-09T23:58:04.494Z,96922.88
